CKM9 weather

Kentville (Camp Aldershot) Heliport
Kentville, Nova Scotia, Canada

Public forecast

Using degrees Celsius for public forecast. Weather courtesy of forecast.io.

METAR (pilot weather report)

Closest report is CFB Greenwood, 18.5 nm (34.2 km) WSW. Retrieved 2019/08/17 12:00 UTC (8 minutes ago):

CYZX 171200Z 33002KT 10SM SCT016 BKN026 17/16 A3016 RMK SC4SC2 SLP214

TAF (pilot weather forecast)

Closest forecast is CFB Greenwood, 18.5 nm (34.2 km) WSW. Retrieved 2019/08/17 12:33 UTC (0 seconds ago):

TAF CYZX 171130Z 1712/1812 VRB03KT 3SM BR VCFG BKN015 BECMG 1712/1713 P6SM NSW SCT020 SCT080 FM171400 VRB03KT P6SM SCT050 SCT080 TEMPO 1714/1723 30008KT BKN050 FM172300 VRB03KT P6SM SCT050 FM180300 VRB03KT P6SM SCT015 BKN080 FM180700 VRB03KT P6SM SCT008 BKN080 TEMPO 1807/1812 3SM BR VCFG BKN008 RMK NXT FCST BY 171800Z